Time;durP1;ratioP1;P1;durP2;ratioP2;P2;SDS_P1;SDS_P2;PMS_P1;PMS_P2;Temp;Humidity;BMP_temperature;BMP_pressure;BME280_temperature;BME280_humidity;BME280_pressure;Samples;Min_cycle;Max_cycle;Signal;HPM_P1;HPM_P2
2022/04/21 00:02:24;;;;;;;6.77;3.50;;;8.90;99.90;;;;;;4995765;28;20170;-83
2022/04/21 00:04:49;;;;;;;4.33;2.80;;;8.70;99.90;;;;;;4995960;28;20172;-83
2022/04/21 00:07:15;;;;;;;7.73;3.37;;;8.70;99.90;;;;;;4995961;28;20248;-83
2022/04/21 00:09:41;;;;;;;9.27;3.17;;;8.80;99.90;;;;;;4996506;28;20194;-83
2022/04/21 00:12:07;;;;;;;2.90;2.60;;;8.80;99.20;;;;;;4996357;28;20178;-83
2022/04/21 00:14:33;;;;;;;6.10;3.07;;;8.70;99.90;;;;;;4996361;28;20325;-83
2022/04/21 00:16:58;;;;;;;7.93;3.10;;;8.60;99.90;;;;;;4995708;28;20655;-84
2022/04/21 00:19:24;;;;;;;8.60;3.00;;;8.60;99.90;;;;;;4995800;28;20265;-83
2022/04/21 00:24:33;;;;;;;6.17;2.97;;;8.70;99.90;;;;;;5012970;28;20220;-82
2022/04/21 00:26:59;;;;;;;3.70;2.90;;;8.60;99.90;;;;;;4995467;28;20595;-83
2022/04/21 00:29:25;;;;;;;6.30;3.37;;;8.60;99.90;;;;;;4995781;28;20628;-83
2022/04/21 00:31:51;;;;;;;4.63;2.90;;;8.70;99.60;;;;;;4995523;28;20266;-83
2022/04/21 00:34:18;;;;;;;6.10;2.90;;;8.60;99.60;;;;;;4995355;28;20174;-84
2022/04/21 00:36:45;;;;;;;5.40;2.90;;;8.70;99.20;;;;;;4995055;28;20201;-83
2022/04/21 00:39:10;;;;;;;7.70;3.23;;;8.60;99.00;;;;;;4995688;28;20273;-83
2022/04/21 00:41:36;;;;;;;4.40;3.10;;;8.60;98.80;;;;;;4997463;28;20208;-84
2022/04/21 00:44:02;;;;;;;7.10;3.13;;;8.60;98.80;;;;;;5001199;28;20182;-85
2022/04/21 00:46:29;;;;;;;5.40;3.30;;;8.50;99.00;;;;;;5000610;28;20246;-83
2022/04/21 00:48:55;;;;;;;9.27;3.60;;;8.50;99.30;;;;;;5000529;28;20185;-83
2022/04/21 00:51:23;;;;;;;5.07;3.20;;;8.50;99.90;;;;;;4998730;28;20198;-83
2022/04/21 00:53:49;;;;;;;5.47;3.20;;;8.40;99.70;;;;;;4999391;28;20213;-84
2022/04/21 00:56:15;;;;;;;5.77;3.23;;;8.40;99.50;;;;;;4998991;28;20198;-83
2022/04/21 00:58:43;;;;;;;4.67;3.20;;;8.30;99.20;;;;;;4998712;28;20245;-83
2022/04/21 01:02:46;;;;;;;5.10;3.13;;;8.20;99.80;;;;;;4998646;28;20194;-84
2022/04/21 01:03:56;;;;;;;4.67;2.90;;;8.40;99.30;;;;;;5016584;28;20297;-83
2022/04/21 01:06:25;;;;;;;6.23;2.93;;;8.30;99.80;;;;;;4999545;28;20194;-83
2022/04/21 01:08:50;;;;;;;5.27;3.03;;;8.20;99.60;;;;;;4998912;28;20183;-83
2022/04/21 01:11:17;;;;;;;4.27;2.93;;;8.20;99.60;;;;;;4999004;28;20533;-84
2022/04/21 01:13:43;;;;;;;7.43;3.03;;;8.30;99.90;;;;;;4999215;28;20671;-84
2022/04/21 01:16:08;;;;;;;4.37;3.00;;;8.40;99.90;;;;;;4998800;28;20202;-84
2022/04/21 01:18:34;;;;;;;5.20;2.93;;;8.30;99.70;;;;;;4998673;28;20209;-83
2022/04/21 01:21:00;;;;;;;4.43;3.00;;;8.30;99.90;;;;;;4998455;28;20971;-83
2022/04/21 01:23:25;;;;;;;7.00;3.10;;;8.40;99.90;;;;;;4998185;28;20179;-83
2022/04/21 01:25:52;;;;;;;3.63;2.77;;;8.30;99.90;;;;;;4998551;28;20290;-83
2022/04/21 01:28:19;;;;;;;6.53;3.43;;;8.20;99.90;;;;;;4998259;28;20217;-84
2022/04/21 01:30:44;;;;;;;5.30;3.53;;;8.20;99.90;;;;;;4998624;28;20592;-84
2022/04/21 01:33:10;;;;;;;6.87;3.50;;;8.20;99.90;;;;;;4998557;28;20175;-84
2022/04/21 01:35:37;;;;;;;4.00;3.30;;;8.00;99.90;;;;;;4999769;28;20669;-83
2022/04/21 01:43:31;;;;;;;5.00;2.90;;;8.10;99.90;;;;;;5017548;28;20177;-83
2022/04/21 01:45:56;;;;;;;6.07;3.10;;;7.90;99.90;;;;;;4999806;28;20285;-83
2022/04/21 01:48:22;;;;;;;6.17;3.10;;;7.90;99.90;;;;;;4999601;28;20175;-84
2022/04/21 01:50:48;;;;;;;5.87;3.50;;;7.90;99.90;;;;;;4999186;28;20192;-86
2022/04/21 01:53:13;;;;;;;7.20;3.40;;;7.90;99.90;;;;;;4998297;28;20200;-83
2022/04/21 01:55:39;;;;;;;8.27;3.87;;;8.00;99.90;;;;;;4999367;28;20202;-83
2022/04/21 01:58:05;;;;;;;6.83;3.50;;;7.90;99.90;;;;;;4999107;28;20687;-83
2022/04/21 02:00:30;;;;;;;4.63;3.07;;;7.90;99.90;;;;;;4999170;28;20247;-83
2022/04/21 02:02:56;;;;;;;4.80;3.20;;;8.00;99.90;;;;;;4998952;28;20691;-84
2022/04/21 02:05:22;;;;;;;6.93;3.20;;;8.00;99.90;;;;;;4998300;28;20527;-84
2022/04/21 02:07:47;;;;;;;6.83;2.97;;;7.80;99.90;;;;;;4997734;28;20178;-84
2022/04/21 02:10:15;;;;;;;4.03;3.13;;;7.80;99.90;;;;;;4997711;28;20186;-84
2022/04/21 02:12:41;;;;;;;6.40;3.70;;;7.80;99.90;;;;;;4996925;28;20265;-83
2022/04/21 02:15:08;;;;;;;6.17;3.40;;;7.70;99.90;;;;;;4998120;28;20175;-83
2022/04/21 02:17:35;;;;;;;6.93;3.27;;;7.60;99.90;;;;;;4997850;28;20244;-84
2022/04/21 02:20:02;;;;;;;10.20;3.13;;;7.60;99.90;;;;;;4997742;28;20642;-83
2022/04/21 02:22:28;;;;;;;6.20;3.43;;;7.70;99.90;;;;;;4997315;28;20186;-83
2022/04/21 02:24:53;;;;;;;6.50;3.30;;;7.60;99.90;;;;;;4997438;28;20235;-84
2022/04/21 02:27:19;;;;;;;6.63;3.40;;;7.60;99.90;;;;;;4998369;28;20233;-83
2022/04/21 02:29:44;;;;;;;4.17;2.80;;;7.70;99.90;;;;;;4999009;28;20212;-83
2022/04/21 02:32:10;;;;;;;4.13;3.23;;;7.60;99.90;;;;;;4998517;28;20693;-83
2022/04/21 02:34:36;;;;;;;5.80;3.37;;;7.50;99.90;;;;;;4998274;28;20183;-83
2022/04/21 02:37:02;;;;;;;6.00;3.47;;;7.50;99.90;;;;;;4998033;28;20204;-83
2022/04/21 02:39:27;;;;;;;5.90;3.33;;;7.60;99.90;;;;;;4998612;28;20168;-84
2022/04/21 02:41:53;;;;;;;11.77;3.23;;;7.60;99.90;;;;;;4998631;28;20213;-83
2022/04/21 02:44:19;;;;;;;5.07;3.40;;;7.40;99.90;;;;;;4998725;28;20655;-83
2022/04/21 02:46:45;;;;;;;2.93;2.73;;;7.40;99.90;;;;;;4998463;28;20277;-83
2022/04/21 02:49:11;;;;;;;3.70;3.07;;;7.40;99.90;;;;;;4997661;28;20179;-83
2022/04/21 02:51:37;;;;;;;8.13;3.50;;;7.40;99.90;;;;;;4997876;28;20208;-82
2022/04/21 02:59:32;;;;;;;3.53;3.03;;;7.30;99.90;;;;;;5015426;28;20197;-83
2022/04/21 03:01:57;;;;;;;5.13;3.17;;;7.30;99.90;;;;;;4997194;28;20202;-83
2022/04/21 03:04:23;;;;;;;4.17;2.77;;;7.30;99.90;;;;;;4996312;28;20650;-83
2022/04/21 03:06:49;;;;;;;4.27;3.10;;;7.30;99.90;;;;;;4997311;28;20201;-83
2022/04/21 03:09:14;;;;;;;7.27;3.20;;;7.30;99.90;;;;;;4997726;28;20178;-83
2022/04/21 03:11:40;;;;;;;6.17;3.00;;;7.20;99.90;;;;;;4997184;28;20186;-83
2022/04/21 03:14:06;;;;;;;5.60;3.60;;;7.30;99.90;;;;;;4996625;28;20186;-83
2022/04/21 03:16:31;;;;;;;4.50;3.43;;;7.40;99.90;;;;;;4996234;28;20286;-83
2022/04/21 03:18:57;;;;;;;5.13;3.37;;;7.40;99.90;;;;;;4996408;28;20257;-83
2022/04/21 03:24:21;;;;;;;5.33;3.40;;;7.30;99.90;;;;;;5013896;28;20700;-83
2022/04/21 03:26:49;;;;;;;7.70;3.23;;;7.30;99.90;;;;;;4996004;28;20665;-83
2022/04/21 03:29:14;;;;;;;6.30;3.67;;;7.20;99.90;;;;;;4996027;28;20178;-83
2022/04/21 03:31:43;;;;;;;7.70;3.80;;;7.20;99.90;;;;;;4996190;28;20183;-83
2022/04/21 03:34:13;;;;;;;8.53;3.50;;;7.30;99.90;;;;;;4995909;28;20290;-83
2022/04/21 03:39:13;;;;;;;6.10;3.33;;;7.30;99.90;;;;;;5013285;28;20207;-83
2022/04/21 03:41:39;;;;;;;5.53;3.63;;;7.20;99.90;;;;;;4996344;28;20248;-82
2022/04/21 03:44:05;;;;;;;4.77;3.47;;;7.20;99.90;;;;;;4996474;28;20570;-81
2022/04/21 03:46:31;;;;;;;8.37;3.93;;;7.20;99.90;;;;;;4995602;28;20253;-80
2022/04/21 03:48:58;;;;;;;6.33;3.87;;;7.10;99.90;;;;;;4996856;28;20209;-81
2022/04/21 03:51:25;;;;;;;7.30;3.77;;;7.00;99.90;;;;;;5002215;28;20181;-81
2022/04/21 03:53:51;;;;;;;5.63;4.00;;;7.00;99.90;;;;;;5002111;28;20557;-82
2022/04/21 03:56:17;;;;;;;8.73;4.13;;;7.10;99.90;;;;;;5002683;28;20699;-81
2022/04/21 03:58:43;;;;;;;7.80;3.90;;;7.20;99.90;;;;;;5001871;28;20721;-80
2022/04/21 04:01:08;;;;;;;11.00;3.77;;;7.20;99.90;;;;;;4997921;28;20293;-80
2022/04/21 04:03:34;;;;;;;8.67;3.87;;;7.20;99.90;;;;;;5013579;28;20201;-80
2022/04/21 04:05:59;;;;;;;8.80;4.60;;;7.10;99.90;;;;;;5015690;28;20280;-80
2022/04/21 04:11:10;;;;;;;5.07;3.83;;;7.10;99.90;;;;;;5031717;28;20407;-80
2022/04/21 04:13:35;;;;;;;5.10;3.60;;;7.00;99.90;;;;;;5013501;28;20177;-81
2022/04/21 04:16:01;;;;;;;6.83;4.03;;;7.00;99.90;;;;;;5019973;28;20212;-81
2022/04/21 04:18:28;;;;;;;5.40;3.90;;;6.90;99.90;;;;;;5016749;28;20202;-80
2022/04/21 04:20:54;;;;;;;5.80;3.90;;;6.90;99.90;;;;;;5014772;28;20247;-82
2022/04/21 04:23:21;;;;;;;6.23;3.90;;;7.10;99.90;;;;;;5014561;28;20626;-80
2022/04/21 04:25:47;;;;;;;5.23;3.90;;;7.10;99.90;;;;;;5014673;28;20234;-80
2022/04/21 04:28:13;;;;;;;7.90;4.73;;;7.10;99.90;;;;;;5014700;28;20650;-81
2022/04/21 04:30:40;;;;;;;6.93;4.37;;;7.20;99.90;;;;;;5014678;28;20181;-80
2022/04/21 04:33:09;;;;;;;8.77;4.13;;;7.10;99.90;;;;;;5014307;28;20637;-80
2022/04/21 04:35:35;;;;;;;8.50;4.20;;;7.10;99.90;;;;;;5014378;28;20530;-81
2022/04/21 04:38:01;;;;;;;6.33;4.27;;;7.10;99.90;;;;;;5014574;28;20214;-81
2022/04/21 04:40:27;;;;;;;10.13;4.37;;;7.10;99.90;;;;;;5014381;28;20548;-81
2022/04/21 04:42:53;;;;;;;6.83;3.93;;;7.10;99.90;;;;;;5014506;28;20174;-81
2022/04/21 04:48:04;;;;;;;6.67;4.13;;;7.20;99.90;;;;;;5032708;28;20189;-81
2022/04/21 04:50:30;;;;;;;7.10;3.80;;;7.20;99.90;;;;;;5014824;28;20183;-80
2022/04/21 04:52:58;;;;;;;5.27;3.80;;;7.20;99.90;;;;;;5014375;28;20231;-80
2022/04/21 04:55:24;;;;;;;7.10;3.90;;;7.20;99.90;;;;;;5014596;28;20189;-81
2022/04/21 04:57:50;;;;;;;7.73;4.07;;;7.20;99.90;;;;;;5014400;28;20209;-81
2022/04/21 05:00:16;;;;;;;7.27;3.97;;;7.30;99.90;;;;;;5014190;28;20193;-80
2022/04/21 05:02:42;;;;;;;9.57;3.73;;;7.30;99.90;;;;;;5014533;28;20705;-81
2022/04/21 05:05:08;;;;;;;7.37;3.83;;;7.40;99.90;;;;;;5014384;28;20179;-81
2022/04/21 05:07:35;;;;;;;5.20;3.87;;;7.40;99.90;;;;;;5014577;28;20194;-81
2022/04/21 05:10:01;;;;;;;6.00;3.80;;;7.40;99.90;;;;;;5014153;28;20189;-81
2022/04/21 05:12:27;;;;;;;13.63;4.10;;;7.40;99.90;;;;;;5013636;28;20239;-80
2022/04/21 05:14:52;;;;;;;5.90;3.73;;;7.40;99.90;;;;;;5014099;28;20183;-81
2022/04/21 05:17:18;;;;;;;10.90;4.10;;;7.50;99.90;;;;;;5031995;28;20206;-81
2022/04/21 05:19:45;;;;;;;5.50;3.47;;;7.50;99.90;;;;;;5015373;28;20632;-80
2022/04/21 05:22:13;;;;;;;5.53;3.87;;;7.50;99.90;;;;;;5014680;28;20257;-81
2022/04/21 05:24:40;;;;;;;6.13;4.00;;;7.70;99.90;;;;;;5015192;28;20198;-80
2022/04/21 05:27:06;;;;;;;6.73;3.50;;;7.70;99.90;;;;;;5014504;28;20569;-81
2022/04/21 05:32:20;;;;;;;6.77;4.20;;;8.00;99.90;;;;;;5036517;28;20200;-81
2022/04/21 05:34:46;;;;;;;6.53;3.83;;;7.90;99.90;;;;;;5018593;28;20174;-82
2022/04/21 05:37:13;;;;;;;8.93;3.77;;;8.00;99.90;;;;;;5018142;28;20194;-82
2022/04/21 05:39:39;;;;;;;4.27;3.30;;;8.00;99.90;;;;;;5018046;28;20178;-80
2022/04/21 05:42:06;;;;;;;6.30;3.60;;;8.00;99.90;;;;;;5018578;28;20178;-80
2022/04/21 05:44:32;;;;;;;6.23;3.73;;;8.00;99.90;;;;;;5018579;28;20174;-81
2022/04/21 05:46:58;;;;;;;4.90;3.57;;;8.00;99.90;;;;;;5019053;28;20190;-81
2022/04/21 05:49:24;;;;;;;8.57;3.90;;;8.20;99.90;;;;;;5019180;28;20201;-81
2022/04/21 05:51:52;;;;;;;10.33;3.87;;;8.30;99.90;;;;;;5019384;28;20170;-81
2022/04/21 05:54:18;;;;;;;6.40;3.80;;;8.40;99.90;;;;;;5019595;28;20174;-81
2022/04/21 05:56:44;;;;;;;8.27;3.40;;;8.50;99.90;;;;;;5020094;28;20197;-81
2022/04/21 05:59:10;;;;;;;9.67;3.73;;;8.60;99.90;;;;;;5019435;28;20205;-81
2022/04/21 06:01:36;;;;;;;5.00;3.37;;;8.60;99.90;;;;;;5037137;28;20166;-81
2022/04/21 06:04:02;;;;;;;4.53;3.33;;;8.60;99.90;;;;;;5019394;28;20185;-82
2022/04/21 06:06:28;;;;;;;5.47;3.80;;;8.70;99.90;;;;;;5019364;28;20186;-81
2022/04/21 06:08:53;;;;;;;6.00;3.83;;;8.40;99.90;;;;;;5019083;28;20186;-81
2022/04/21 06:11:19;;;;;;;4.03;3.50;;;8.40;99.90;;;;;;5018542;28;20654;-81
2022/04/21 06:13:45;;;;;;;7.23;3.90;;;8.40;99.90;;;;;;5018260;28;20538;-81
2022/04/21 06:16:11;;;;;;;8.50;4.10;;;8.60;99.90;;;;;;5018270;28;20756;-81
2022/04/21 06:18:36;;;;;;;5.53;3.47;;;8.80;99.90;;;;;;5017035;28;20298;-81
2022/04/21 06:21:03;;;;;;;6.07;3.50;;;9.00;99.90;;;;;;5017625;28;20171;-81
2022/04/21 06:23:30;;;;;;;8.20;3.70;;;9.30;99.90;;;;;;5017334;28;20183;-81
2022/04/21 06:25:59;;;;;;;4.57;3.33;;;9.30;99.90;;;;;;5017143;28;20301;-81
2022/04/21 06:28:29;;;;;;;7.17;4.13;;;9.40;99.90;;;;;;5016758;28;20172;-81
2022/04/21 06:30:55;;;;;;;5.73;3.57;;;9.30;99.90;;;;;;5017140;28;20215;-81
2022/04/21 06:33:21;;;;;;;7.37;3.90;;;9.50;99.90;;;;;;5016424;28;20576;-81
2022/04/21 06:35:47;;;;;;;7.10;3.90;;;9.40;99.90;;;;;;5020482;28;20207;-81
2022/04/21 06:38:13;;;;;;;12.57;3.63;;;9.60;99.90;;;;;;5022135;28;20587;-81
2022/04/21 06:40:39;;;;;;;5.17;3.07;;;9.90;99.90;;;;;;5021962;28;20271;-82
2022/04/21 06:48:40;;;;;;;6.60;3.87;;;10.50;98.80;;;;;;5040546;28;20584;-81
2022/04/21 06:51:05;;;;;;;5.83;3.93;;;10.30;98.60;;;;;;5022433;28;20194;-81
2022/04/21 06:53:34;;;;;;;7.70;4.30;;;10.50;98.80;;;;;;5022271;28;20176;-82
2022/04/21 06:56:00;;;;;;;8.87;4.27;;;10.50;98.00;;;;;;5020524;28;20198;-81
2022/04/21 06:58:26;;;;;;;6.90;4.23;;;10.40;98.30;;;;;;5022677;28;20307;-81
2022/04/21 07:00:51;;;;;;;6.67;4.10;;;10.70;98.20;;;;;;5021547;28;20243;-81
2022/04/21 07:03:17;;;;;;;5.43;4.23;;;11.20;97.20;;;;;;5020758;28;20176;-82
2022/04/21 07:05:42;;;;;;;8.77;4.00;;;11.20;95.30;;;;;;5021234;28;20248;-82
2022/04/21 07:08:08;;;;;;;6.80;4.30;;;11.00;96.00;;;;;;5021134;28;20181;-82
2022/04/21 07:10:35;;;;;;;9.70;4.30;;;10.90;95.70;;;;;;5021373;28;20211;-82
2022/04/21 07:13:11;;;;;;;5.90;4.17;;;10.60;96.90;;;;;;5020697;28;20201;-81
2022/04/21 07:15:37;;;;;;;6.67;4.27;;;10.70;95.60;;;;;;5020888;28;20175;-82
2022/04/21 07:18:03;;;;;;;7.27;4.30;;;10.60;96.00;;;;;;5020129;28;20208;-82
2022/04/21 07:20:29;;;;;;;7.53;4.33;;;10.40;96.60;;;;;;5021415;28;20171;-83
2022/04/21 07:22:55;;;;;;;8.20;4.73;;;10.20;96.70;;;;;;5020846;28;20174;-82
2022/04/21 07:25:21;;;;;;;5.87;4.37;;;10.10;96.40;;;;;;5022206;28;20171;-82
2022/04/21 07:27:47;;;;;;;7.13;4.23;;;10.50;96.50;;;;;;5022511;28;20214;-82
2022/04/21 07:30:13;;;;;;;8.70;4.67;;;10.40;96.70;;;;;;5022451;28;20176;-81
2022/04/21 07:32:39;;;;;;;10.33;4.50;;;10.50;96.90;;;;;;5022975;28;20185;-81
2022/04/21 07:35:06;;;;;;;9.67;4.10;;;10.70;97.40;;;;;;5021849;28;20182;-82
2022/04/21 07:37:33;;;;;;;7.37;4.33;;;10.90;96.00;;;;;;5021664;28;20577;-82
2022/04/21 07:39:58;;;;;;;7.17;3.67;;;11.50;96.40;;;;;;5021726;28;20166;-81
2022/04/21 07:42:24;;;;;;;6.33;3.77;;;12.10;94.20;;;;;;5022095;28;20211;-82
2022/04/21 07:44:51;;;;;;;7.43;3.87;;;12.50;94.40;;;;;;5021147;28;20224;-82
2022/04/21 07:47:17;;;;;;;6.57;3.90;;;12.20;94.10;;;;;;5020330;28;20624;-82
2022/04/21 07:49:48;;;;;;;6.80;3.57;;;12.50;94.40;;;;;;5021623;28;20193;-82
2022/04/21 07:55:18;;;;;;;8.03;3.43;;;12.30;92.70;;;;;;5040014;28;20185;-82
2022/04/21 07:57:45;;;;;;;8.97;3.27;;;12.70;92.70;;;;;;5021134;28;20348;-82
2022/04/21 08:00:12;;;;;;;5.07;3.10;;;12.70;91.70;;;;;;5022178;28;20191;-81
2022/04/21 08:02:40;;;;;;;7.10;3.13;;;12.10;91.70;;;;;;5022416;28;20681;-82
2022/04/21 08:05:07;;;;;;;6.37;3.50;;;12.50;91.70;;;;;;5021995;28;20200;-82
2022/04/21 08:07:34;;;;;;;3.97;3.10;;;12.80;91.30;;;;;;5022171;28;20221;-82
2022/04/21 08:10:01;;;;;;;5.33;3.17;;;12.70;92.00;;;;;;5021343;28;20173;-81
2022/04/21 08:12:27;;;;;;;4.27;3.00;;;13.00;91.80;;;;;;5021803;28;20178;-81
2022/04/21 08:14:53;;;;;;;3.50;2.77;;;13.50;91.00;;;;;;5021711;28;20240;-81
2022/04/21 08:17:18;;;;;;;3.37;2.80;;;13.60;88.30;;;;;;5020117;28;20193;-81
2022/04/21 08:19:44;;;;;;;6.50;3.13;;;13.50;90.10;;;;;;5015325;28;20176;-82
2022/04/21 08:22:10;;;;;;;3.37;2.47;;;13.30;91.90;;;;;;5015155;28;20174;-81
2022/04/21 08:32:49;;;;;;;4.73;2.90;;;13.20;89.30;;;;;;5032625;28;20169;-81
2022/04/21 08:35:14;;;;;;;6.80;3.03;;;13.80;88.70;;;;;;5014879;28;20193;-80
2022/04/21 08:37:45;;;;;;;3.00;2.60;;;14.10;88.10;;;;;;5014501;28;20706;-81
2022/04/21 08:40:11;;;;;;;4.67;2.87;;;13.90;88.10;;;;;;5014766;28;20291;-83
2022/04/21 08:42:41;;;;;;;2.80;2.50;;;14.30;88.40;;;;;;5014571;28;20257;-81
2022/04/21 08:45:08;;;;;;;4.90;2.80;;;14.40;89.80;;;;;;5014414;28;20199;-80
2022/04/21 08:47:35;;;;;;;4.43;2.40;;;14.10;86.80;;;;;;5014824;28;20194;-82
2022/04/21 08:50:11;;;;;;;7.53;2.47;;;13.90;88.30;;;;;;5014688;28;20602;-82
2022/04/21 08:52:39;;;;;;;7.50;2.67;;;13.80;87.10;;;;;;5014922;28;20169;-81
2022/04/21 08:55:05;;;;;;;4.27;2.30;;;13.80;87.00;;;;;;5014462;28;20714;-81
2022/04/21 08:57:31;;;;;;;7.93;2.70;;;14.20;86.20;;;;;;5014129;28;20201;-80
2022/04/21 08:59:58;;;;;;;2.80;2.53;;;14.50;84.30;;;;;;5014699;28;20562;-79
2022/04/21 09:02:42;;;;;;;8.37;2.43;;;14.00;83.90;;;;;;5015063;28;20173;-81
2022/04/21 09:05:08;;;;;;;2.30;2.10;;;14.50;82.50;;;;;;5018472;28;20205;-82
2022/04/21 09:07:50;;;;;;;5.07;2.37;;;14.20;81.60;;;;;;5018390;28;20243;-81
2022/04/21 09:10:17;;;;;;;2.70;2.20;;;14.00;82.80;;;;;;5018058;28;20182;-81
2022/04/21 09:12:55;;;;;;;3.50;2.53;;;14.30;83.40;;;;;;5017554;28;20200;-80
2022/04/21 09:15:43;;;;;;;5.30;2.30;;;14.80;81.20;;;;;;5018233;28;20178;-80
2022/04/21 09:18:13;;;;;;;9.30;2.10;;;14.70;80.90;;;;;;5017870;28;20210;-81
2022/04/21 09:20:43;;;;;;;4.00;1.90;;;14.30;82.60;;;;;;5018368;28;20181;-81
2022/04/21 09:23:11;;;;;;;3.70;2.00;;;13.80;80.10;;;;;;5017973;28;20681;-81
2022/04/21 09:25:50;;;;;;;5.77;2.27;;;13.50;81.30;;;;;;5035531;28;20631;-80
2022/04/21 09:28:28;;;;;;;7.20;2.20;;;13.60;84.50;;;;;;5018362;28;20181;-81
2022/04/21 09:31:01;;;;;;;3.53;2.10;;;13.50;81.40;;;;;;5017743;28;20178;-81
2022/04/21 09:33:32;;;;;;;5.03;2.30;;;13.50;82.00;;;;;;5018438;28;20638;-80
2022/04/21 09:36:04;;;;;;;4.37;2.53;;;13.90;83.60;;;;;;5017837;28;20236;-81
2022/04/21 09:38:30;;;;;;;4.73;2.50;;;13.70;82.90;;;;;;5017840;28;20593;-80
2022/04/21 09:41:03;;;;;;;4.27;2.50;;;13.70;85.10;;;;;;5017409;28;20170;-81
2022/04/21 09:43:31;;;;;;;8.73;2.47;;;13.80;83.80;;;;;;5017483;28;20279;-80
2022/04/21 09:46:17;;;;;;;5.60;2.47;;;14.10;84.60;;;;;;5017681;28;20448;-81
2022/04/21 09:48:44;;;;;;;4.60;2.43;;;13.90;80.70;;;;;;5035205;28;20174;-82
2022/04/21 09:51:18;;;;;;;5.97;2.17;;;13.80;82.60;;;;;;5017240;28;20178;-81
2022/04/21 09:54:03;;;;;;;4.03;2.27;;;13.90;81.20;;;;;;5017452;28;20185;-82
2022/04/21 09:56:37;;;;;;;4.53;2.60;;;14.30;80.70;;;;;;5017342;28;20290;-81
2022/04/21 09:59:08;;;;;;;4.27;2.60;;;13.90;81.50;;;;;;5017873;28;20580;-81
2022/04/21 10:01:38;;;;;;;7.00;3.20;;;14.20;81.40;;;;;;5017629;28;20190;-81
2022/04/21 10:04:08;;;;;;;5.70;2.73;;;14.30;82.00;;;;;;5017608;28;20186;-81
2022/04/21 10:06:37;;;;;;;6.63;2.80;;;13.70;82.80;;;;;;5017403;28;20190;-81
2022/04/21 10:09:02;;;;;;;7.27;2.60;;;14.20;84.10;;;;;;5017064;28;20611;-80
2022/04/21 10:11:29;;;;;;;5.00;2.70;;;14.40;82.70;;;;;;5017156;28;20182;-82
2022/04/21 10:13:56;;;;;;;3.83;2.67;;;14.00;84.40;;;;;;5016504;28;20525;-81
2022/04/21 10:16:30;;;;;;;6.97;2.40;;;14.40;82.80;;;;;;5016372;28;20206;-82
2022/04/21 10:18:59;;;;;;;9.37;2.93;;;14.60;83.00;;;;;;5018713;28;20296;-83
2022/04/21 10:21:55;;;;;;;7.03;3.03;;;14.10;83.80;;;;;;5022093;28;20185;-81
2022/04/21 10:24:23;;;;;;;4.80;2.80;;;15.00;81.40;;;;;;5015334;28;20182;-82
2022/04/21 10:26:48;;;;;;;6.33;2.73;;;14.90;81.60;;;;;;5021118;28;20194;-82
2022/04/21 10:29:16;;;;;;;5.50;2.97;;;15.20;80.10;;;;;;5023054;28;20725;-82
2022/04/21 10:31:50;;;;;;;5.60;2.93;;;14.60;82.50;;;;;;5022317;28;20201;-82
2022/04/21 10:34:31;;;;;;;3.63;2.90;;;14.30;82.30;;;;;;5023197;28;20239;-82
2022/04/21 10:37:12;;;;;;;4.17;2.73;;;14.70;82.80;;;;;;5040716;28;20199;-81
2022/04/21 10:39:39;;;;;;;6.47;2.97;;;14.70;83.40;;;;;;5023525;28;20187;-81
2022/04/21 10:42:14;;;;;;;6.07;3.10;;;14.60;82.20;;;;;;5022661;28;20177;-82
2022/04/21 10:44:45;;;;;;;9.93;3.30;;;15.40;84.70;;;;;;5040146;28;20222;-82
2022/04/21 10:47:36;;;;;;;4.47;3.00;;;15.20;82.80;;;;;;5021798;28;20649;-83
2022/04/21 10:50:10;;;;;;;6.30;3.20;;;14.90;81.50;;;;;;5020720;28;20167;-81
2022/04/21 10:58:38;;;;;;;6.87;3.20;;;15.80;82.90;;;;;;5038534;28;20820;-81
2022/04/21 11:01:23;;;;;;;5.23;3.33;;;15.70;81.30;;;;;;5013446;28;20285;-82
2022/04/21 11:04:08;;;;;;;5.30;3.03;;;15.30;80.90;;;;;;5021951;28;20181;-81
2022/04/21 11:06:42;;;;;;;5.40;3.47;;;15.30;82.10;;;;;;5020605;28;20188;-82
2022/04/21 11:09:08;;;;;;;6.87;3.57;;;15.00;82.30;;;;;;5020211;28;20227;-82
2022/04/21 11:11:45;;;;;;;9.17;3.90;;;16.40;81.00;;;;;;5019106;28;20264;-82
2022/04/21 11:14:11;;;;;;;9.63;3.70;;;15.70;82.00;;;;;;5020212;28;20658;-83
2022/04/21 11:16:47;;;;;;;7.57;3.67;;;16.10;83.10;;;;;;5035296;28;20336;-81
2022/04/21 11:19:33;;;;;;;6.03;3.80;;;15.60;83.60;;;;;;5016083;28;20219;-81
2022/04/21 11:22:07;;;;;;;6.97;3.83;;;16.40;82.10;;;;;;5016461;28;20542;-81
2022/04/21 11:24:54;;;;;;;7.83;3.93;;;16.40;81.60;;;;;;5016277;28;20646;-81
2022/04/21 11:27:21;;;;;;;8.67;3.60;;;16.00;85.60;;;;;;5016158;28;20190;-81
2022/04/21 11:29:47;;;;;;;5.77;3.87;;;16.10;82.70;;;;;;5015813;28;20208;-82
2022/04/21 11:32:17;;;;;;;7.93;4.17;;;15.80;83.30;;;;;;5016145;28;20170;-82
2022/04/21 11:35:03;;;;;;;9.27;4.00;;;15.90;83.30;;;;;;5015953;28;20201;-82
2022/04/21 11:37:58;;;;;;;11.60;4.30;;;15.80;82.90;;;;;;5015923;28;20213;-81
2022/04/21 11:40:28;;;;;;;5.93;4.07;;;16.50;88.80;;;;;;5015808;28;20236;-82
2022/04/21 11:42:55;;;;;;;6.37;3.90;;;16.50;86.60;;;;;;5015785;28;20170;-81
2022/04/21 11:45:26;;;;;;;4.57;4.10;;;16.40;84.70;;;;;;5015533;28;20178;-81
2022/04/21 11:47:53;;;;;;;5.33;3.50;;;16.50;81.80;;;;;;5015478;28;20523;-80
2022/04/21 11:50:21;;;;;;;8.63;4.60;;;16.30;83.10;;;;;;5015567;28;20527;-79
2022/04/21 11:52:47;;;;;;;8.20;4.10;;;16.00;83.70;;;;;;5015147;28;20210;-80
2022/04/21 11:55:15;;;;;;;10.23;4.63;;;16.30;83.10;;;;;;5016599;28;20174;-81
2022/04/21 11:57:45;;;;;;;8.77;4.10;;;16.70;83.00;;;;;;5019119;28;20202;-81
2022/04/21 12:00:12;;;;;;;5.00;3.97;;;17.00;83.40;;;;;;5019378;28;20240;-81
2022/04/21 12:08:10;;;;;;;8.27;4.33;;;16.30;84.10;;;;;;5037092;28;20669;-81
2022/04/21 12:10:36;;;;;;;6.53;3.80;;;16.00;84.00;;;;;;5015330;28;20182;-80
2022/04/21 12:13:03;;;;;;;7.53;3.97;;;16.70;83.10;;;;;;5016318;28;20626;-81
2022/04/21 12:15:30;;;;;;;9.47;3.60;;;16.50;81.90;;;;;;5016381;28;20234;-82
2022/04/21 12:18:00;;;;;;;6.27;3.63;;;16.80;84.50;;;;;;5017624;28;20259;-80
2022/04/21 12:20:27;;;;;;;6.53;4.10;;;17.00;83.30;;;;;;5033102;28;20634;-79
2022/04/21 12:22:54;;;;;;;8.27;4.40;;;16.40;82.90;;;;;;5015390;28;20515;-81
2022/04/21 12:25:29;;;;;;;8.47;4.67;;;16.80;82.50;;;;;;5015575;28;20247;-80
2022/04/21 12:27:54;;;;;;;5.47;4.03;;;16.40;85.00;;;;;;5016015;28;20264;-81
2022/04/21 12:30:20;;;;;;;8.57;3.93;;;16.20;85.70;;;;;;5015532;28;20277;-81
2022/04/21 12:32:47;;;;;;;6.13;3.63;;;16.80;83.80;;;;;;5015203;28;20220;-82
2022/04/21 12:35:14;;;;;;;8.70;4.40;;;16.40;86.40;;;;;;5015747;28;20233;-82
2022/04/21 12:37:42;;;;;;;8.47;4.63;;;15.90;84.90;;;;;;5015613;28;20244;-81
2022/04/21 12:40:10;;;;;;;9.67;4.17;;;15.60;87.00;;;;;;5015375;28;20177;-82
2022/04/21 12:42:40;;;;;;;6.90;3.73;;;15.70;87.90;;;;;;5015441;28;20177;-81
2022/04/21 12:45:06;;;;;;;6.80;4.13;;;15.30;85.30;;;;;;5015252;28;20177;-81
2022/04/21 12:47:45;;;;;;;9.50;4.70;;;15.40;85.70;;;;;;4998609;28;20682;-80
2022/04/21 12:50:20;;;;;;;6.10;4.07;;;15.70;88.20;;;;;;4994207;28;20650;-81
2022/04/21 12:52:55;;;;;;;10.03;4.43;;;16.00;88.40;;;;;;4988207;28;20216;-79
2022/04/21 12:55:21;;;;;;;8.87;4.30;;;16.10;86.70;;;;;;4993900;28;20176;-81
2022/04/21 12:58:13;;;;;;;8.63;4.90;;;16.00;85.80;;;;;;4994903;28;20198;-81
2022/04/21 13:00:49;;;;;;;11.30;5.13;;;15.60;85.80;;;;;;4994631;28;20190;-82
2022/04/21 13:03:15;;;;;;;7.17;4.67;;;15.40;86.80;;;;;;4992367;28;20170;-80
2022/04/21 13:05:45;;;;;;;10.17;4.83;;;15.40;87.20;;;;;;4994570;28;20194;-81
2022/04/21 13:08:11;;;;;;;11.93;4.90;;;15.30;89.10;;;;;;4993835;28;20171;-81
2022/04/21 13:10:37;;;;;;;11.53;5.40;;;15.60;89.90;;;;;;5011306;28;20178;-82
2022/04/21 13:13:03;;;;;;;10.80;5.17;;;15.60;87.80;;;;;;4993447;28;20635;-81
2022/04/21 13:15:29;;;;;;;8.63;4.83;;;15.60;88.10;;;;;;4994282;28;20183;-82
2022/04/21 13:17:58;;;;;;;7.83;5.00;;;15.40;88.20;;;;;;4993713;28;20612;-83
2022/04/21 13:23:07;;;;;;;9.43;4.87;;;15.40;86.90;;;;;;5013867;28;20182;-82
2022/04/21 13:25:33;;;;;;;6.23;4.83;;;15.60;90.40;;;;;;4998304;28;20634;-82
2022/04/21 13:27:59;;;;;;;9.53;4.70;;;15.50;89.20;;;;;;4996224;28;20230;-81
2022/04/21 13:30:24;;;;;;;8.80;5.13;;;15.60;88.30;;;;;;4992246;28;20183;-81
2022/04/21 13:35:34;;;;;;;8.20;5.00;;;15.60;87.40;;;;;;5010643;28;20529;-80
2022/04/21 13:38:00;;;;;;;11.40;4.67;;;15.70;87.00;;;;;;4993448;28;20207;-84
2022/04/21 13:40:26;;;;;;;7.77;5.43;;;15.70;85.80;;;;;;4995744;28;20195;-85
2022/04/21 13:42:51;;;;;;;9.90;5.30;;;15.40;86.30;;;;;;4993418;28;20225;-84
2022/04/21 13:45:17;;;;;;;12.10;4.57;;;15.60;85.90;;;;;;4994462;28;20179;-83
2022/04/21 13:47:43;;;;;;;9.20;5.07;;;15.80;87.60;;;;;;4994173;28;20268;-84
2022/04/21 13:50:09;;;;;;;8.03;4.83;;;15.70;87.40;;;;;;4997252;28;20182;-83
2022/04/21 13:52:37;;;;;;;10.47;5.20;;;15.70;85.40;;;;;;4997776;28;20180;-84
2022/04/21 13:55:04;;;;;;;10.77;5.00;;;15.80;86.90;;;;;;4997292;28;20237;-83
2022/04/21 13:57:30;;;;;;;7.43;4.90;;;16.00;86.70;;;;;;4994234;28;20580;-84